sensor_id;sensor_type;location;lat;lon;timestamp;P1;durP1;ratioP1;P2;durP2;ratioP2
18505;SDS011;9382;53.242;10.438;2022-07-26T00:00:43;10.40;;;3.97;;
18505;SDS011;9382;53.242;10.438;2022-07-26T00:03:10;13.27;;;4.53;;
18505;SDS011;9382;53.242;10.438;2022-07-26T00:05:37;9.37;;;4.13;;
18505;SDS011;9382;53.242;10.438;2022-07-26T00:08:04;9.80;;;4.20;;
18505;SDS011;9382;53.242;10.438;2022-07-26T00:10:39;10.33;;;4.33;;
18505;SDS011;9382;53.242;10.438;2022-07-26T00:13:09;5.00;;;3.37;;
18505;SDS011;9382;53.242;10.438;2022-07-26T00:15:37;8.27;;;4.07;;
18505;SDS011;9382;53.242;10.438;2022-07-26T00:18:04;9.77;;;3.70;;
18505;SDS011;9382;53.242;10.438;2022-07-26T00:20:31;8.80;;;3.87;;
18505;SDS011;9382;53.242;10.438;2022-07-26T00:22:58;5.40;;;3.13;;
18505;SDS011;9382;53.242;10.438;2022-07-26T00:25:25;7.60;;;3.80;;
18505;SDS011;9382;53.242;10.438;2022-07-26T00:27:52;9.23;;;4.07;;
18505;SDS011;9382;53.242;10.438;2022-07-26T00:30:20;10.47;;;3.50;;
18505;SDS011;9382;53.242;10.438;2022-07-26T00:32:47;10.40;;;3.57;;
18505;SDS011;9382;53.242;10.438;2022-07-26T00:35:14;6.17;;;3.60;;
18505;SDS011;9382;53.242;10.438;2022-07-26T00:37:41;9.27;;;3.60;;
18505;SDS011;9382;53.242;10.438;2022-07-26T00:40:09;14.37;;;3.80;;
18505;SDS011;9382;53.242;10.438;2022-07-26T00:42:36;8.60;;;3.80;;
18505;SDS011;9382;53.242;10.438;2022-07-26T00:45:03;8.43;;;3.50;;
18505;SDS011;9382;53.242;10.438;2022-07-26T00:47:34;7.10;;;3.37;;
18505;SDS011;9382;53.242;10.438;2022-07-26T00:50:01;11.63;;;3.73;;
18505;SDS011;9382;53.242;10.438;2022-07-26T00:52:28;10.57;;;3.47;;
18505;SDS011;9382;53.242;10.438;2022-07-26T00:54:55;7.30;;;3.30;;
18505;SDS011;9382;53.242;10.438;2022-07-26T00:57:22;7.40;;;3.63;;
18505;SDS011;9382;53.242;10.438;2022-07-26T00:59:52;10.13;;;3.30;;
18505;SDS011;9382;53.242;10.438;2022-07-26T01:02:18;10.03;;;3.47;;
18505;SDS011;9382;53.242;10.438;2022-07-26T01:04:46;6.87;;;3.43;;
18505;SDS011;9382;53.242;10.438;2022-07-26T01:07:13;8.60;;;3.73;;
18505;SDS011;9382;53.242;10.438;2022-07-26T01:09:40;10.23;;;3.63;;
18505;SDS011;9382;53.242;10.438;2022-07-26T01:12:08;9.23;;;3.60;;
18505;SDS011;9382;53.242;10.438;2022-07-26T01:14:35;10.97;;;3.70;;
18505;SDS011;9382;53.242;10.438;2022-07-26T01:17:02;13.57;;;4.10;;
18505;SDS011;9382;53.242;10.438;2022-07-26T01:19:29;8.57;;;3.53;;
18505;SDS011;9382;53.242;10.438;2022-07-26T01:21:57;8.07;;;3.73;;
18505;SDS011;9382;53.242;10.438;2022-07-26T01:24:24;10.03;;;3.23;;
18505;SDS011;9382;53.242;10.438;2022-07-26T01:26:50;8.83;;;3.63;;
18505;SDS011;9382;53.242;10.438;2022-07-26T01:29:19;8.00;;;3.20;;
18505;SDS011;9382;53.242;10.438;2022-07-26T01:31:46;7.87;;;3.23;;
18505;SDS011;9382;53.242;10.438;2022-07-26T01:34:13;7.13;;;3.53;;
18505;SDS011;9382;53.242;10.438;2022-07-26T01:36:40;9.17;;;3.60;;
18505;SDS011;9382;53.242;10.438;2022-07-26T01:39:08;6.70;;;3.20;;
18505;SDS011;9382;53.242;10.438;2022-07-26T01:41:34;8.70;;;3.10;;
18505;SDS011;9382;53.242;10.438;2022-07-26T01:44:01;7.13;;;3.23;;
18505;SDS011;9382;53.242;10.438;2022-07-26T01:46:28;6.70;;;2.87;;
18505;SDS011;9382;53.242;10.438;2022-07-26T01:48:55;10.80;;;3.47;;
18505;SDS011;9382;53.242;10.438;2022-07-26T01:51:22;7.60;;;3.17;;
18505;SDS011;9382;53.242;10.438;2022-07-26T01:53:49;8.87;;;3.50;;
18505;SDS011;9382;53.242;10.438;2022-07-26T01:56:17;6.67;;;2.80;;
18505;SDS011;9382;53.242;10.438;2022-07-26T01:58:44;11.47;;;3.30;;
18505;SDS011;9382;53.242;10.438;2022-07-26T02:01:11;8.57;;;3.07;;
18505;SDS011;9382;53.242;10.438;2022-07-26T02:03:37;10.87;;;3.50;;
18505;SDS011;9382;53.242;10.438;2022-07-26T02:06:05;7.00;;;3.10;;
18505;SDS011;9382;53.242;10.438;2022-07-26T02:08:32;5.20;;;3.23;;
18505;SDS011;9382;53.242;10.438;2022-07-26T02:10:58;9.90;;;3.07;;
18505;SDS011;9382;53.242;10.438;2022-07-26T02:13:27;9.57;;;3.00;;
18505;SDS011;9382;53.242;10.438;2022-07-26T02:15:54;9.00;;;3.30;;
18505;SDS011;9382;53.242;10.438;2022-07-26T02:18:22;8.30;;;3.13;;
18505;SDS011;9382;53.242;10.438;2022-07-26T02:20:49;6.67;;;2.93;;
18505;SDS011;9382;53.242;10.438;2022-07-26T02:23:16;11.40;;;3.83;;
18505;SDS011;9382;53.242;10.438;2022-07-26T02:25:43;10.13;;;3.10;;
18505;SDS011;9382;53.242;10.438;2022-07-26T02:28:10;11.00;;;3.40;;
18505;SDS011;9382;53.242;10.438;2022-07-26T02:30:38;10.03;;;3.13;;
18505;SDS011;9382;53.242;10.438;2022-07-26T02:33:04;8.57;;;3.33;;
18505;SDS011;9382;53.242;10.438;2022-07-26T02:35:31;8.37;;;2.67;;
18505;SDS011;9382;53.242;10.438;2022-07-26T02:38:00;7.47;;;3.17;;
18505;SDS011;9382;53.242;10.438;2022-07-26T02:40:27;9.10;;;3.20;;
18505;SDS011;9382;53.242;10.438;2022-07-26T02:42:54;11.00;;;3.30;;
18505;SDS011;9382;53.242;10.438;2022-07-26T02:45:21;12.17;;;3.37;;
18505;SDS011;9382;53.242;10.438;2022-07-26T02:47:50;9.03;;;3.13;;
18505;SDS011;9382;53.242;10.438;2022-07-26T02:50:19;7.77;;;3.07;;
18505;SDS011;9382;53.242;10.438;2022-07-26T02:52:48;9.90;;;3.30;;
18505;SDS011;9382;53.242;10.438;2022-07-26T02:55:16;8.70;;;3.20;;
18505;SDS011;9382;53.242;10.438;2022-07-26T02:57:44;9.57;;;3.00;;
18505;SDS011;9382;53.242;10.438;2022-07-26T03:00:12;11.00;;;3.67;;
18505;SDS011;9382;53.242;10.438;2022-07-26T03:02:40;7.47;;;3.10;;
18505;SDS011;9382;53.242;10.438;2022-07-26T03:05:09;9.47;;;3.17;;
18505;SDS011;9382;53.242;10.438;2022-07-26T03:07:35;11.17;;;3.37;;
18505;SDS011;9382;53.242;10.438;2022-07-26T03:10:02;8.37;;;3.63;;
18505;SDS011;9382;53.242;10.438;2022-07-26T03:12:32;10.47;;;3.27;;
18505;SDS011;9382;53.242;10.438;2022-07-26T03:15:02;12.53;;;3.40;;
18505;SDS011;9382;53.242;10.438;2022-07-26T03:17:29;11.87;;;3.30;;
18505;SDS011;9382;53.242;10.438;2022-07-26T03:19:56;12.70;;;3.20;;
18505;SDS011;9382;53.242;10.438;2022-07-26T03:22:24;8.47;;;2.97;;
18505;SDS011;9382;53.242;10.438;2022-07-26T03:24:51;10.47;;;3.10;;
18505;SDS011;9382;53.242;10.438;2022-07-26T03:27:18;11.37;;;3.37;;
18505;SDS011;9382;53.242;10.438;2022-07-26T03:29:44;10.20;;;2.97;;
18505;SDS011;9382;53.242;10.438;2022-07-26T03:32:11;8.47;;;3.03;;
18505;SDS011;9382;53.242;10.438;2022-07-26T03:34:38;10.57;;;2.83;;
18505;SDS011;9382;53.242;10.438;2022-07-26T03:37:05;8.20;;;2.80;;
18505;SDS011;9382;53.242;10.438;2022-07-26T03:39:33;12.90;;;3.20;;
18505;SDS011;9382;53.242;10.438;2022-07-26T03:42:02;8.67;;;2.80;;
18505;SDS011;9382;53.242;10.438;2022-07-26T03:44:29;9.77;;;2.97;;
18505;SDS011;9382;53.242;10.438;2022-07-26T03:46:55;13.00;;;3.27;;
18505;SDS011;9382;53.242;10.438;2022-07-26T03:49:22;10.80;;;3.53;;
18505;SDS011;9382;53.242;10.438;2022-07-26T03:51:49;9.10;;;2.87;;
18505;SDS011;9382;53.242;10.438;2022-07-26T03:54:16;8.50;;;3.30;;
18505;SDS011;9382;53.242;10.438;2022-07-26T03:56:44;12.20;;;3.37;;
18505;SDS011;9382;53.242;10.438;2022-07-26T03:59:10;9.23;;;3.37;;
18505;SDS011;9382;53.242;10.438;2022-07-26T04:01:37;10.73;;;3.07;;
18505;SDS011;9382;53.242;10.438;2022-07-26T04:04:06;8.50;;;3.00;;
18505;SDS011;9382;53.242;10.438;2022-07-26T04:06:33;12.40;;;3.30;;
18505;SDS011;9382;53.242;10.438;2022-07-26T04:09:00;11.33;;;3.20;;
18505;SDS011;9382;53.242;10.438;2022-07-26T04:11:27;10.67;;;4.00;;
18505;SDS011;9382;53.242;10.438;2022-07-26T04:13:56;15.70;;;2.97;;
18505;SDS011;9382;53.242;10.438;2022-07-26T04:16:23;11.63;;;3.50;;
18505;SDS011;9382;53.242;10.438;2022-07-26T04:18:50;11.60;;;3.30;;
18505;SDS011;9382;53.242;10.438;2022-07-26T04:21:18;9.23;;;3.33;;
18505;SDS011;9382;53.242;10.438;2022-07-26T04:23:45;11.90;;;3.67;;
18505;SDS011;9382;53.242;10.438;2022-07-26T04:26:11;11.27;;;3.47;;
18505;SDS011;9382;53.242;10.438;2022-07-26T04:28:39;12.53;;;3.50;;
18505;SDS011;9382;53.242;10.438;2022-07-26T04:31:07;11.93;;;3.53;;
18505;SDS011;9382;53.242;10.438;2022-07-26T04:33:34;14.47;;;3.37;;
18505;SDS011;9382;53.242;10.438;2022-07-26T04:36:01;11.07;;;3.53;;
18505;SDS011;9382;53.242;10.438;2022-07-26T04:38:28;12.53;;;3.47;;
18505;SDS011;9382;53.242;10.438;2022-07-26T04:40:54;19.30;;;4.03;;
18505;SDS011;9382;53.242;10.438;2022-07-26T04:43:22;11.73;;;3.67;;
18505;SDS011;9382;53.242;10.438;2022-07-26T04:45:49;13.00;;;3.90;;
18505;SDS011;9382;53.242;10.438;2022-07-26T04:48:17;12.63;;;3.83;;
18505;SDS011;9382;53.242;10.438;2022-07-26T04:50:44;10.87;;;3.60;;
18505;SDS011;9382;53.242;10.438;2022-07-26T04:53:11;12.10;;;3.37;;
18505;SDS011;9382;53.242;10.438;2022-07-26T04:55:38;13.43;;;3.90;;
18505;SDS011;9382;53.242;10.438;2022-07-26T04:58:05;10.60;;;3.60;;
18505;SDS011;9382;53.242;10.438;2022-07-26T05:00:32;11.47;;;3.60;;
18505;SDS011;9382;53.242;10.438;2022-07-26T05:02:59;8.70;;;3.30;;
18505;SDS011;9382;53.242;10.438;2022-07-26T05:05:29;11.40;;;3.70;;
18505;SDS011;9382;53.242;10.438;2022-07-26T05:07:57;12.43;;;3.67;;
18505;SDS011;9382;53.242;10.438;2022-07-26T05:10:27;8.83;;;3.50;;
18505;SDS011;9382;53.242;10.438;2022-07-26T05:12:56;14.03;;;4.10;;
18505;SDS011;9382;53.242;10.438;2022-07-26T05:15:23;13.53;;;4.23;;
18505;SDS011;9382;53.242;10.438;2022-07-26T05:17:50;11.97;;;3.47;;
18505;SDS011;9382;53.242;10.438;2022-07-26T05:20:17;11.93;;;3.53;;
18505;SDS011;9382;53.242;10.438;2022-07-26T05:22:45;11.23;;;3.60;;
18505;SDS011;9382;53.242;10.438;2022-07-26T05:25:12;11.33;;;3.90;;
18505;SDS011;9382;53.242;10.438;2022-07-26T05:27:39;11.53;;;4.23;;
18505;SDS011;9382;53.242;10.438;2022-07-26T05:30:06;13.57;;;3.90;;
18505;SDS011;9382;53.242;10.438;2022-07-26T05:32:34;13.73;;;4.13;;
18505;SDS011;9382;53.242;10.438;2022-07-26T05:35:01;12.23;;;4.30;;
18505;SDS011;9382;53.242;10.438;2022-07-26T05:37:28;12.73;;;4.20;;
18505;SDS011;9382;53.242;10.438;2022-07-26T05:39:56;10.57;;;3.80;;
18505;SDS011;9382;53.242;10.438;2022-07-26T05:42:23;14.17;;;3.97;;
18505;SDS011;9382;53.242;10.438;2022-07-26T05:44:50;11.43;;;4.17;;
18505;SDS011;9382;53.242;10.438;2022-07-26T05:47:17;11.40;;;3.70;;
18505;SDS011;9382;53.242;10.438;2022-07-26T05:49:44;16.60;;;4.27;;
18505;SDS011;9382;53.242;10.438;2022-07-26T05:52:11;13.37;;;3.80;;
18505;SDS011;9382;53.242;10.438;2022-07-26T05:54:37;8.00;;;3.57;;
18505;SDS011;9382;53.242;10.438;2022-07-26T05:57:05;7.53;;;3.40;;
18505;SDS011;9382;53.242;10.438;2022-07-26T05:59:32;9.80;;;3.50;;
18505;SDS011;9382;53.242;10.438;2022-07-26T06:01:59;9.83;;;3.47;;
18505;SDS011;9382;53.242;10.438;2022-07-26T06:04:26;12.60;;;3.50;;
18505;SDS011;9382;53.242;10.438;2022-07-26T06:06:53;13.07;;;3.50;;
18505;SDS011;9382;53.242;10.438;2022-07-26T06:09:20;11.57;;;3.27;;
18505;SDS011;9382;53.242;10.438;2022-07-26T06:11:48;13.03;;;3.90;;
18505;SDS011;9382;53.242;10.438;2022-07-26T06:14:16;10.70;;;3.63;;
18505;SDS011;9382;53.242;10.438;2022-07-26T06:16:43;7.80;;;3.40;;
18505;SDS011;9382;53.242;10.438;2022-07-26T06:19:10;9.70;;;3.83;;
18505;SDS011;9382;53.242;10.438;2022-07-26T06:21:37;15.13;;;4.53;;
18505;SDS011;9382;53.242;10.438;2022-07-26T06:24:04;7.73;;;4.10;;
18505;SDS011;9382;53.242;10.438;2022-07-26T06:26:33;8.40;;;4.73;;
18505;SDS011;9382;53.242;10.438;2022-07-26T06:29:00;9.93;;;4.67;;
18505;SDS011;9382;53.242;10.438;2022-07-26T06:31:28;8.43;;;4.50;;
18505;SDS011;9382;53.242;10.438;2022-07-26T06:33:55;9.47;;;4.10;;
18505;SDS011;9382;53.242;10.438;2022-07-26T06:36:22;10.10;;;4.60;;
18505;SDS011;9382;53.242;10.438;2022-07-26T06:38:49;9.60;;;4.20;;
18505;SDS011;9382;53.242;10.438;2022-07-26T06:41:16;10.70;;;4.47;;
18505;SDS011;9382;53.242;10.438;2022-07-26T06:43:42;9.30;;;4.40;;
18505;SDS011;9382;53.242;10.438;2022-07-26T06:46:09;9.13;;;4.30;;
18505;SDS011;9382;53.242;10.438;2022-07-26T06:48:37;9.03;;;4.10;;
18505;SDS011;9382;53.242;10.438;2022-07-26T06:51:04;9.57;;;4.67;;
18505;SDS011;9382;53.242;10.438;2022-07-26T06:53:34;11.77;;;4.43;;
18505;SDS011;9382;53.242;10.438;2022-07-26T06:56:00;7.83;;;3.63;;
18505;SDS011;9382;53.242;10.438;2022-07-26T06:58:27;8.33;;;3.97;;
18505;SDS011;9382;53.242;10.438;2022-07-26T07:00:54;9.07;;;4.00;;
18505;SDS011;9382;53.242;10.438;2022-07-26T07:03:21;10.20;;;4.20;;
18505;SDS011;9382;53.242;10.438;2022-07-26T07:05:49;7.10;;;4.00;;
18505;SDS011;9382;53.242;10.438;2022-07-26T07:08:15;9.37;;;4.33;;
18505;SDS011;9382;53.242;10.438;2022-07-26T07:10:45;10.23;;;4.87;;
18505;SDS011;9382;53.242;10.438;2022-07-26T07:13:12;7.63;;;3.00;;
18505;SDS011;9382;53.242;10.438;2022-07-26T07:15:38;7.53;;;2.67;;
18505;SDS011;9382;53.242;10.438;2022-07-26T07:18:05;8.10;;;3.20;;
18505;SDS011;9382;53.242;10.438;2022-07-26T07:20:32;4.57;;;2.40;;
18505;SDS011;9382;53.242;10.438;2022-07-26T07:23:00;5.00;;;1.90;;
18505;SDS011;9382;53.242;10.438;2022-07-26T07:25:27;3.77;;;2.03;;
18505;SDS011;9382;53.242;10.438;2022-07-26T07:27:53;4.53;;;2.20;;
18505;SDS011;9382;53.242;10.438;2022-07-26T07:30:20;6.20;;;2.30;;
18505;SDS011;9382;53.242;10.438;2022-07-26T07:32:47;5.20;;;2.37;;
18505;SDS011;9382;53.242;10.438;2022-07-26T07:35:14;4.70;;;2.53;;
18505;SDS011;9382;53.242;10.438;2022-07-26T07:37:40;6.57;;;2.50;;
18505;SDS011;9382;53.242;10.438;2022-07-26T07:40:09;5.40;;;2.40;;
18505;SDS011;9382;53.242;10.438;2022-07-26T07:42:37;4.63;;;2.50;;
18505;SDS011;9382;53.242;10.438;2022-07-26T07:45:04;4.47;;;2.33;;
18505;SDS011;9382;53.242;10.438;2022-07-26T07:47:33;5.40;;;2.57;;
18505;SDS011;9382;53.242;10.438;2022-07-26T07:50:00;6.80;;;2.70;;
18505;SDS011;9382;53.242;10.438;2022-07-26T07:52:27;5.67;;;2.70;;
18505;SDS011;9382;53.242;10.438;2022-07-26T07:54:53;6.37;;;2.83;;
18505;SDS011;9382;53.242;10.438;2022-07-26T07:57:21;10.30;;;2.97;;
18505;SDS011;9382;53.242;10.438;2022-07-26T07:59:48;7.17;;;2.67;;
18505;SDS011;9382;53.242;10.438;2022-07-26T08:02:15;4.43;;;2.50;;
18505;SDS011;9382;53.242;10.438;2022-07-26T08:04:42;6.43;;;2.57;;
18505;SDS011;9382;53.242;10.438;2022-07-26T08:07:08;7.23;;;3.13;;
18505;SDS011;9382;53.242;10.438;2022-07-26T08:09:35;3.80;;;2.13;;
18505;SDS011;9382;53.242;10.438;2022-07-26T08:12:02;5.07;;;2.63;;
18505;SDS011;9382;53.242;10.438;2022-07-26T08:14:30;4.13;;;2.00;;
18505;SDS011;9382;53.242;10.438;2022-07-26T08:16:57;4.73;;;2.27;;
18505;SDS011;9382;53.242;10.438;2022-07-26T08:19:24;2.10;;;1.63;;
18505;SDS011;9382;53.242;10.438;2022-07-26T08:21:51;2.27;;;1.77;;
18505;SDS011;9382;53.242;10.438;2022-07-26T08:24:17;4.10;;;1.80;;
18505;SDS011;9382;53.242;10.438;2022-07-26T08:26:44;4.73;;;1.87;;
18505;SDS011;9382;53.242;10.438;2022-07-26T08:29:11;6.10;;;1.60;;
18505;SDS011;9382;53.242;10.438;2022-07-26T08:31:41;3.03;;;1.83;;
18505;SDS011;9382;53.242;10.438;2022-07-26T08:34:08;3.40;;;1.63;;
18505;SDS011;9382;53.242;10.438;2022-07-26T08:36:35;3.33;;;1.60;;
18505;SDS011;9382;53.242;10.438;2022-07-26T08:39:02;1.27;;;1.00;;
18505;SDS011;9382;53.242;10.438;2022-07-26T08:41:29;1.63;;;0.90;;
18505;SDS011;9382;53.242;10.438;2022-07-26T08:44:03;1.77;;;1.30;;
18505;SDS011;9382;53.242;10.438;2022-07-26T08:46:31;1.20;;;1.10;;
18505;SDS011;9382;53.242;10.438;2022-07-26T08:49:02;3.27;;;1.50;;
18505;SDS011;9382;53.242;10.438;2022-07-26T08:51:29;1.50;;;0.90;;
18505;SDS011;9382;53.242;10.438;2022-07-26T08:53:58;3.07;;;1.10;;
18505;SDS011;9382;53.242;10.438;2022-07-26T08:56:25;1.10;;;0.80;;
18505;SDS011;9382;53.242;10.438;2022-07-26T08:58:52;2.10;;;0.90;;
18505;SDS011;9382;53.242;10.438;2022-07-26T09:01:19;2.93;;;0.90;;
18505;SDS011;9382;53.242;10.438;2022-07-26T09:03:45;3.20;;;1.07;;
18505;SDS011;9382;53.242;10.438;2022-07-26T09:06:14;2.40;;;0.90;;
18505;SDS011;9382;53.242;10.438;2022-07-26T09:08:42;2.03;;;0.80;;
18505;SDS011;9382;53.242;10.438;2022-07-26T09:11:26;0.80;;;0.80;;
18505;SDS011;9382;53.242;10.438;2022-07-26T09:13:55;1.93;;;1.00;;
18505;SDS011;9382;53.242;10.438;2022-07-26T09:16:23;2.57;;;1.07;;
18505;SDS011;9382;53.242;10.438;2022-07-26T09:18:50;1.77;;;0.73;;
18505;SDS011;9382;53.242;10.438;2022-07-26T09:21:28;0.73;;;0.70;;
18505;SDS011;9382;53.242;10.438;2022-07-26T09:23:56;2.63;;;0.90;;
18505;SDS011;9382;53.242;10.438;2022-07-26T09:26:23;2.70;;;0.97;;
18505;SDS011;9382;53.242;10.438;2022-07-26T09:29:01;2.00;;;0.90;;
18505;SDS011;9382;53.242;10.438;2022-07-26T09:31:29;2.40;;;0.87;;
18505;SDS011;9382;53.242;10.438;2022-07-26T09:33:56;3.50;;;0.93;;
18505;SDS011;9382;53.242;10.438;2022-07-26T09:36:24;3.83;;;0.90;;
18505;SDS011;9382;53.242;10.438;2022-07-26T09:38:54;3.07;;;1.00;;
18505;SDS011;9382;53.242;10.438;2022-07-26T09:41:23;1.93;;;1.10;;
18505;SDS011;9382;53.242;10.438;2022-07-26T09:43:51;2.33;;;0.97;;
18505;SDS011;9382;53.242;10.438;2022-07-26T09:46:19;2.63;;;1.00;;
18505;SDS011;9382;53.242;10.438;2022-07-26T09:48:46;4.33;;;1.00;;
18505;SDS011;9382;53.242;10.438;2022-07-26T09:51:13;2.13;;;0.90;;
18505;SDS011;9382;53.242;10.438;2022-07-26T09:53:40;1.33;;;0.80;;
18505;SDS011;9382;53.242;10.438;2022-07-26T09:56:10;1.90;;;0.90;;
18505;SDS011;9382;53.242;10.438;2022-07-26T09:58:37;1.67;;;0.67;;
18505;SDS011;9382;53.242;10.438;2022-07-26T10:01:05;2.23;;;0.90;;
18505;SDS011;9382;53.242;10.438;2022-07-26T10:03:32;2.90;;;1.10;;
18505;SDS011;9382;53.242;10.438;2022-07-26T10:06:01;2.20;;;0.90;;
18505;SDS011;9382;53.242;10.438;2022-07-26T10:08:29;3.77;;;1.03;;
18505;SDS011;9382;53.242;10.438;2022-07-26T10:10:59;1.70;;;1.07;;
18505;SDS011;9382;53.242;10.438;2022-07-26T10:13:30;1.37;;;0.80;;
18505;SDS011;9382;53.242;10.438;2022-07-26T10:15:59;1.63;;;0.80;;
18505;SDS011;9382;53.242;10.438;2022-07-26T10:18:42;2.50;;;0.90;;
18505;SDS011;9382;53.242;10.438;2022-07-26T10:21:21;1.23;;;0.70;;
18505;SDS011;9382;53.242;10.438;2022-07-26T10:23:49;5.27;;;1.00;;
18505;SDS011;9382;53.242;10.438;2022-07-26T10:29:22;2.60;;;1.00;;
18505;SDS011;9382;53.242;10.438;2022-07-26T10:34:44;2.43;;;0.93;;
18505;SDS011;9382;53.242;10.438;2022-07-26T10:37:18;2.57;;;1.03;;
18505;SDS011;9382;53.242;10.438;2022-07-26T10:39:48;4.13;;;1.20;;
18505;SDS011;9382;53.242;10.438;2022-07-26T10:42:14;1.73;;;1.00;;
18505;SDS011;9382;53.242;10.438;2022-07-26T10:44:42;3.00;;;1.23;;
18505;SDS011;9382;53.242;10.438;2022-07-26T10:47:11;2.57;;;1.10;;
18505;SDS011;9382;53.242;10.438;2022-07-26T10:49:41;1.30;;;1.20;;
18505;SDS011;9382;53.242;10.438;2022-07-26T10:52:14;2.40;;;1.00;;
18505;SDS011;9382;53.242;10.438;2022-07-26T10:57:40;2.57;;;1.20;;
18505;SDS011;9382;53.242;10.438;2022-07-26T11:00:11;4.90;;;1.17;;
18505;SDS011;9382;53.242;10.438;2022-07-26T11:02:40;1.93;;;0.97;;
18505;SDS011;9382;53.242;10.438;2022-07-26T11:05:13;4.30;;;1.10;;
18505;SDS011;9382;53.242;10.438;2022-07-26T11:07:46;2.33;;;1.00;;
18505;SDS011;9382;53.242;10.438;2022-07-26T11:10:21;1.40;;;0.97;;
18505;SDS011;9382;53.242;10.438;2022-07-26T11:12:56;1.67;;;1.00;;
18505;SDS011;9382;53.242;10.438;2022-07-26T11:15:28;2.80;;;1.00;;
18505;SDS011;9382;53.242;10.438;2022-07-26T11:18:09;2.83;;;1.00;;
18505;SDS011;9382;53.242;10.438;2022-07-26T11:20:38;3.63;;;1.10;;
18505;SDS011;9382;53.242;10.438;2022-07-26T11:26:12;1.03;;;0.90;;
18505;SDS011;9382;53.242;10.438;2022-07-26T11:31:37;4.97;;;1.20;;
18505;SDS011;9382;53.242;10.438;2022-07-26T11:34:05;2.40;;;1.20;;
18505;SDS011;9382;53.242;10.438;2022-07-26T11:36:33;1.27;;;1.10;;
18505;SDS011;9382;53.242;10.438;2022-07-26T11:39:02;4.07;;;1.10;;
18505;SDS011;9382;53.242;10.438;2022-07-26T11:41:30;2.20;;;1.03;;
18505;SDS011;9382;53.242;10.438;2022-07-26T11:43:57;3.00;;;0.97;;
18505;SDS011;9382;53.242;10.438;2022-07-26T11:46:35;2.23;;;0.90;;
18505;SDS011;9382;53.242;10.438;2022-07-26T11:49:11;4.77;;;1.07;;
18505;SDS011;9382;53.242;10.438;2022-07-26T11:51:40;2.37;;;0.93;;
18505;SDS011;9382;53.242;10.438;2022-07-26T11:54:14;2.67;;;1.03;;
18505;SDS011;9382;53.242;10.438;2022-07-26T11:56:48;2.83;;;1.17;;
18505;SDS011;9382;53.242;10.438;2022-07-26T11:59:16;3.37;;;1.17;;
18505;SDS011;9382;53.242;10.438;2022-07-26T12:01:45;6.27;;;1.27;;
18505;SDS011;9382;53.242;10.438;2022-07-26T12:04:19;2.60;;;1.20;;
18505;SDS011;9382;53.242;10.438;2022-07-26T12:06:47;1.97;;;1.30;;
18505;SDS011;9382;53.242;10.438;2022-07-26T12:09:26;1.40;;;0.83;;
18505;SDS011;9382;53.242;10.438;2022-07-26T12:11:54;7.20;;;1.20;;
18505;SDS011;9382;53.242;10.438;2022-07-26T12:14:23;2.00;;;1.00;;
18505;SDS011;9382;53.242;10.438;2022-07-26T12:16:52;3.50;;;1.23;;
18505;SDS011;9382;53.242;10.438;2022-07-26T12:19:26;5.00;;;1.37;;
18505;SDS011;9382;53.242;10.438;2022-07-26T12:21:56;4.97;;;1.30;;
18505;SDS011;9382;53.242;10.438;2022-07-26T12:24:34;3.13;;;1.13;;
18505;SDS011;9382;53.242;10.438;2022-07-26T12:27:03;3.80;;;1.10;;
18505;SDS011;9382;53.242;10.438;2022-07-26T12:29:32;5.17;;;1.30;;
18505;SDS011;9382;53.242;10.438;2022-07-26T12:32:11;3.87;;;1.20;;
18505;SDS011;9382;53.242;10.438;2022-07-26T12:34:41;1.93;;;1.10;;
18505;SDS011;9382;53.242;10.438;2022-07-26T12:37:19;5.20;;;1.37;;
18505;SDS011;9382;53.242;10.438;2022-07-26T12:39:59;4.77;;;1.10;;
18505;SDS011;9382;53.242;10.438;2022-07-26T12:42:30;3.60;;;1.20;;
18505;SDS011;9382;53.242;10.438;2022-07-26T12:44:57;2.03;;;1.10;;
18505;SDS011;9382;53.242;10.438;2022-07-26T12:47:26;3.23;;;1.10;;
18505;SDS011;9382;53.242;10.438;2022-07-26T12:49:53;2.83;;;1.40;;
18505;SDS011;9382;53.242;10.438;2022-07-26T12:52:21;4.03;;;1.50;;
18505;SDS011;9382;53.242;10.438;2022-07-26T12:54:49;4.20;;;1.50;;
18505;SDS011;9382;53.242;10.438;2022-07-26T12:57:17;4.00;;;1.23;;
18505;SDS011;9382;53.242;10.438;2022-07-26T12:59:45;2.83;;;1.20;;
18505;SDS011;9382;53.242;10.438;2022-07-26T13:02:13;5.63;;;1.60;;
18505;SDS011;9382;53.242;10.438;2022-07-26T13:04:41;6.97;;;1.43;;
18505;SDS011;9382;53.242;10.438;2022-07-26T13:07:08;3.03;;;1.20;;
18505;SDS011;9382;53.242;10.438;2022-07-26T13:09:35;3.77;;;1.70;;
18505;SDS011;9382;53.242;10.438;2022-07-26T13:12:02;3.73;;;1.20;;
18505;SDS011;9382;53.242;10.438;2022-07-26T13:14:30;4.23;;;1.20;;
18505;SDS011;9382;53.242;10.438;2022-07-26T13:16:58;3.43;;;1.60;;
18505;SDS011;9382;53.242;10.438;2022-07-26T13:19:24;5.53;;;1.60;;
18505;SDS011;9382;53.242;10.438;2022-07-26T13:21:53;4.47;;;1.40;;
18505;SDS011;9382;53.242;10.438;2022-07-26T13:24:21;4.57;;;1.27;;
18505;SDS011;9382;53.242;10.438;2022-07-26T13:26:48;4.03;;;1.57;;
18505;SDS011;9382;53.242;10.438;2022-07-26T13:29:14;3.30;;;1.33;;
18505;SDS011;9382;53.242;10.438;2022-07-26T13:31:41;3.53;;;1.40;;
18505;SDS011;9382;53.242;10.438;2022-07-26T13:34:08;5.05;;;1.48;;
18505;SDS011;9382;53.242;10.438;2022-07-26T13:36:35;6.65;;;1.75;;
18505;SDS011;9382;53.242;10.438;2022-07-26T13:39:04;7.93;;;1.90;;
18505;SDS011;9382;53.242;10.438;2022-07-26T13:41:31;8.73;;;1.80;;
18505;SDS011;9382;53.242;10.438;2022-07-26T13:43:58;5.97;;;1.73;;
18505;SDS011;9382;53.242;10.438;2022-07-26T13:46:25;3.60;;;1.47;;
18505;SDS011;9382;53.242;10.438;2022-07-26T13:48:54;6.20;;;1.67;;
18505;SDS011;9382;53.242;10.438;2022-07-26T13:51:23;7.60;;;1.63;;
18505;SDS011;9382;53.242;10.438;2022-07-26T13:54:13;7.13;;;1.77;;
18505;SDS011;9382;53.242;10.438;2022-07-26T13:56:41;6.53;;;1.63;;
18505;SDS011;9382;53.242;10.438;2022-07-26T13:59:09;6.53;;;1.70;;
18505;SDS011;9382;53.242;10.438;2022-07-26T14:01:36;4.67;;;1.70;;
18505;SDS011;9382;53.242;10.438;2022-07-26T14:04:04;5.13;;;1.80;;
18505;SDS011;9382;53.242;10.438;2022-07-26T14:06:32;4.00;;;1.50;;
18505;SDS011;9382;53.242;10.438;2022-07-26T14:09:00;5.47;;;1.47;;
18505;SDS011;9382;53.242;10.438;2022-07-26T14:11:31;5.63;;;1.80;;
18505;SDS011;9382;53.242;10.438;2022-07-26T14:13:58;4.43;;;1.55;;
18505;SDS011;9382;53.242;10.438;2022-07-26T14:16:24;4.10;;;1.45;;
18505;SDS011;9382;53.242;10.438;2022-07-26T14:18:52;7.47;;;1.30;;
18505;SDS011;9382;53.242;10.438;2022-07-26T14:21:21;5.75;;;1.50;;
18505;SDS011;9382;53.242;10.438;2022-07-26T14:23:48;4.43;;;1.50;;
18505;SDS011;9382;53.242;10.438;2022-07-26T14:26:15;4.53;;;1.60;;
18505;SDS011;9382;53.242;10.438;2022-07-26T14:28:44;3.92;;;1.45;;
18505;SDS011;9382;53.242;10.438;2022-07-26T14:31:11;5.68;;;1.77;;
18505;SDS011;9382;53.242;10.438;2022-07-26T14:33:38;5.18;;;1.42;;
18505;SDS011;9382;53.242;10.438;2022-07-26T14:36:05;5.30;;;1.63;;
18505;SDS011;9382;53.242;10.438;2022-07-26T14:38:32;4.22;;;1.40;;
18505;SDS011;9382;53.242;10.438;2022-07-26T14:40:59;4.95;;;1.60;;
18505;SDS011;9382;53.242;10.438;2022-07-26T14:43:26;4.80;;;1.38;;
18505;SDS011;9382;53.242;10.438;2022-07-26T14:45:54;3.53;;;1.60;;
18505;SDS011;9382;53.242;10.438;2022-07-26T14:48:21;4.10;;;1.33;;
18505;SDS011;9382;53.242;10.438;2022-07-26T14:50:48;6.63;;;1.73;;
18505;SDS011;9382;53.242;10.438;2022-07-26T14:53:15;5.18;;;1.40;;
18505;SDS011;9382;53.242;10.438;2022-07-26T14:55:42;1.88;;;1.13;;
18505;SDS011;9382;53.242;10.438;2022-07-26T14:58:09;6.20;;;1.38;;
18505;SDS011;9382;53.242;10.438;2022-07-26T15:00:36;6.72;;;1.50;;
18505;SDS011;9382;53.242;10.438;2022-07-26T15:03:05;3.20;;;1.63;;
18505;SDS011;9382;53.242;10.438;2022-07-26T15:05:34;5.80;;;1.45;;